createdAt,value
2023-04-28T00:01:20.413Z,7.50
2023-04-28T00:22:59.643Z,7.23
2023-04-28T00:31:47.701Z,7.15
2023-04-28T01:35:49.969Z,7.52
2023-04-28T01:49:11.191Z,7.74
2023-04-28T01:57:51.099Z,7.64
2023-04-28T02:24:37.296Z,6.72
2023-04-28T02:33:02.030Z,6.19
2023-04-28T03:19:02.110Z,6.19
2023-04-28T03:22:38.418Z,6.27
2023-04-28T03:25:53.637Z,6.21
2023-04-28T03:29:28.683Z,5.81
2023-04-28T03:36:47.519Z,6.17
2023-04-28T03:40:09.727Z,5.84
2023-04-28T03:43:38.121Z,5.67
2023-04-28T03:47:05.649Z,5.79
2023-04-28T03:50:30.893Z,5.89
2023-04-28T03:53:46.694Z,5.91
2023-04-28T03:57:04.810Z,5.73
2023-04-28T04:00:31.109Z,5.66
2023-04-28T04:03:48.152Z,5.64
2023-04-28T04:06:58.349Z,5.78
2023-04-28T04:10:19.733Z,5.70
2023-04-28T04:13:43.272Z,5.99
2023-04-28T04:17:03.131Z,6.06
2023-04-28T04:20:20.433Z,6.04
2023-04-28T04:23:29.642Z,6.04
2023-04-28T04:26:54.108Z,6.09
2023-04-28T04:34:31.128Z,6.02
2023-04-28T04:38:02.977Z,6.09
2023-04-28T04:41:44.412Z,6.29
2023-04-28T04:44:53.210Z,6.39
2023-04-28T04:48:22.814Z,6.20
2023-04-28T04:51:51.583Z,6.40
2023-04-28T04:54:59.449Z,6.61
2023-04-28T05:06:00.685Z,6.63
2023-04-28T05:09:58.305Z,6.85
2023-04-28T05:22:49.218Z,6.98
2023-04-28T05:27:07.893Z,6.84
2023-04-28T05:40:36.169Z,7.45
2023-04-28T05:43:59.288Z,7.42
2023-04-28T06:18:32.974Z,8.99
2023-04-28T06:21:40.655Z,9.64
2023-04-28T06:24:59.454Z,10.51
2023-04-28T06:28:16.442Z,11.46
2023-04-28T06:31:20.119Z,10.55
2023-04-28T06:34:27.469Z,11.23
2023-04-28T06:37:35.147Z,11.14
2023-04-28T06:40:53.673Z,10.77
2023-04-28T06:44:01.078Z,10.29
2023-04-28T06:47:27.782Z,10.26
2023-04-28T06:52:04.140Z,10.63
2023-04-28T06:55:26.705Z,10.92
2023-04-28T07:12:46.858Z,12.55
2023-04-28T07:16:30.283Z,12.19
2023-04-28T07:19:59.821Z,12.43
2023-04-28T07:26:46.366Z,13.46
2023-04-28T07:30:27.453Z,14.87
2023-04-28T07:33:28.756Z,13.61
2023-04-28T07:44:07.481Z,12.61
2023-04-28T07:47:44.530Z,12.66
2023-04-28T07:50:49.241Z,12.88
2023-04-28T07:54:04.518Z,13.06
2023-04-28T07:57:16.009Z,12.98
2023-04-28T08:19:12.691Z,13.50
2023-04-28T08:22:35.551Z,13.33
2023-04-28T08:25:42.390Z,13.45
2023-04-28T08:29:14.684Z,13.56
2023-04-28T08:32:35.690Z,13.33
2023-04-28T08:35:47.136Z,13.48
2023-04-28T08:38:55.258Z,13.45
2023-04-28T08:42:00.160Z,13.62
2023-04-28T08:45:13.518Z,13.74
2023-04-28T08:48:44.110Z,13.68
2023-04-28T08:52:47.280Z,13.70
2023-04-28T08:55:30.208Z,14.17
2023-04-28T09:07:19.723Z,14.13
2023-04-28T09:10:49.618Z,14.14
2023-04-28T09:18:58.452Z,14.44
2023-04-28T09:23:13.225Z,14.28
2023-04-28T10:16:36.563Z,15.42
2023-04-28T10:20:33.807Z,15.73
2023-04-28T10:41:18.669Z,16.25
2023-04-28T10:44:53.861Z,16.24
2023-04-28T10:48:47.458Z,15.58
2023-04-28T11:01:46.440Z,16.78
2023-04-28T11:06:58.736Z,16.53
2023-04-28T11:09:54.382Z,16.80
2023-04-28T11:47:04.128Z,16.15
2023-04-28T11:51:57.197Z,16.27
2023-04-28T11:54:31.806Z,16.34
2023-04-28T11:57:48.862Z,16.27
2023-04-28T12:01:17.456Z,16.51
2023-04-28T12:04:48.190Z,16.68
2023-04-28T12:08:03.720Z,16.23
2023-04-28T12:11:14.451Z,16.26
2023-04-28T12:20:29.995Z,15.95
2023-04-28T12:24:14.323Z,16.16
2023-04-28T12:27:25.544Z,16.33
2023-04-28T12:30:43.488Z,16.72
2023-04-28T12:33:50.364Z,16.51
2023-04-28T12:36:58.346Z,16.37
2023-04-28T12:40:15.880Z,16.48
2023-04-28T12:43:33.000Z,16.05
2023-04-28T12:46:38.367Z,16.64
2023-04-28T12:49:47.376Z,16.72
2023-04-28T12:52:53.390Z,16.48
2023-04-28T12:56:11.681Z,16.73
2023-04-28T12:59:16.789Z,16.67
2023-04-28T13:02:39.625Z,16.80
2023-04-28T13:05:48.152Z,16.53
2023-04-28T13:08:56.810Z,16.61
2023-04-28T13:12:06.480Z,16.65
2023-04-28T13:15:11.032Z,16.92
2023-04-28T13:18:14.380Z,16.80
2023-04-28T13:21:18.917Z,16.90
2023-04-28T13:24:25.789Z,16.85
2023-04-28T13:27:43.495Z,17.19
2023-04-28T13:30:48.304Z,17.04
2023-04-28T13:33:52.864Z,16.89
2023-04-28T13:37:01.153Z,17.14
2023-04-28T13:40:08.580Z,16.87
2023-04-28T13:43:11.176Z,16.99
2023-04-28T13:46:15.501Z,17.14
2023-04-28T13:49:22.449Z,17.19
2023-04-28T13:52:26.236Z,16.96
2023-04-28T13:55:29.629Z,17.11
2023-04-28T13:58:38.601Z,16.91
2023-04-28T14:01:41.269Z,17.15
2023-04-28T14:04:53.114Z,17.14
2023-04-28T14:07:56.953Z,17.09
2023-04-28T14:11:00.381Z,17.09
2023-04-28T14:14:04.475Z,17.23
2023-04-28T14:17:06.977Z,17.00
2023-04-28T14:20:13.534Z,16.93
2023-04-28T14:23:16.510Z,16.95
2023-04-28T14:26:26.151Z,16.90
2023-04-28T14:29:30.979Z,16.89
2023-04-28T14:32:35.047Z,16.81
2023-04-28T14:35:40.308Z,17.01
2023-04-28T14:38:49.372Z,16.96
2023-04-28T14:42:07.607Z,16.77
2023-04-28T14:45:15.809Z,16.80
2023-04-28T14:48:18.124Z,16.96
2023-04-28T14:51:24.364Z,16.82
2023-04-28T14:54:41.511Z,17.14
2023-04-28T14:57:44.436Z,17.08
2023-04-28T15:00:53.509Z,16.87
2023-04-28T15:07:14.398Z,16.71
2023-04-28T15:10:18.213Z,16.73
2023-04-28T15:13:25.925Z,16.57
2023-04-28T15:16:29.699Z,16.51
2023-04-28T15:19:42.124Z,16.62
2023-04-28T15:22:50.058Z,16.70
2023-04-28T15:25:53.882Z,16.51
2023-04-28T15:29:01.370Z,16.65
2023-04-28T15:32:05.101Z,16.58
2023-04-28T15:35:12.498Z,16.79
2023-04-28T15:38:31.834Z,16.58
2023-04-28T15:41:38.938Z,16.42
2023-04-28T15:44:45.417Z,16.57
2023-04-28T15:47:51.194Z,16.40
2023-04-28T15:50:56.473Z,16.37
2023-04-28T15:54:03.940Z,16.37
2023-04-28T15:57:09.359Z,16.24
2023-04-28T16:00:15.054Z,16.43
2023-04-28T16:03:18.770Z,16.50
2023-04-28T16:06:21.435Z,16.45
2023-04-28T16:09:24.177Z,16.26
2023-04-28T16:12:42.049Z,16.35
2023-04-28T16:15:48.061Z,16.20
2023-04-28T16:18:57.667Z,16.21
2023-04-28T16:22:04.194Z,16.38
2023-04-28T16:25:09.727Z,16.13
2023-04-28T16:28:12.059Z,16.08
2023-04-28T16:31:17.030Z,16.16
2023-04-28T16:34:23.168Z,16.34
2023-04-28T16:37:49.028Z,16.15
2023-04-28T16:40:52.493Z,16.02
2023-04-28T16:43:54.496Z,15.93
2023-04-28T16:47:46.441Z,16.03
2023-04-28T16:50:57.595Z,16.17
2023-04-28T16:54:07.421Z,15.94
2023-04-28T16:57:20.427Z,16.06
2023-04-28T17:00:26.543Z,16.08
2023-04-28T17:03:30.387Z,15.90
2023-04-28T17:06:36.617Z,16.09
2023-04-28T17:13:53.016Z,15.96
2023-04-28T17:16:56.025Z,15.84
2023-04-28T17:20:05.244Z,15.79
2023-04-28T17:23:08.983Z,15.99
2023-04-28T17:26:11.944Z,15.77
2023-04-28T17:29:17.988Z,15.67
2023-04-28T17:32:26.823Z,15.68
2023-04-28T17:35:29.210Z,15.64
2023-04-28T17:38:32.586Z,15.63
2023-04-28T17:41:43.742Z,15.65
2023-04-28T17:44:46.156Z,15.56
2023-04-28T17:47:50.399Z,15.61
2023-04-28T17:50:58.967Z,15.53
2023-04-28T17:54:21.957Z,15.56
2023-04-28T17:57:24.450Z,15.77
2023-04-28T18:00:27.940Z,15.67
2023-04-28T18:03:34.793Z,15.68
2023-04-28T18:06:37.400Z,15.41
2023-04-28T18:09:40.674Z,15.59
2023-04-28T18:12:43.053Z,15.61
2023-04-28T18:15:46.457Z,15.30
2023-04-28T18:18:49.308Z,15.51
2023-04-28T18:21:52.555Z,15.22
2023-04-28T18:24:55.000Z,15.45
2023-04-28T18:27:57.454Z,15.34
2023-04-28T18:31:07.360Z,15.38
2023-04-28T18:34:09.841Z,15.06
2023-04-28T18:37:17.203Z,15.01
2023-04-28T18:40:20.423Z,15.23
2023-04-28T18:43:25.966Z,14.93
2023-04-28T18:46:29.697Z,14.89
2023-04-28T18:49:32.443Z,14.89
2023-04-28T18:52:35.541Z,14.99
2023-04-28T18:55:38.936Z,15.03
2023-04-28T18:58:42.655Z,14.78
2023-04-28T19:01:44.971Z,14.64
2023-04-28T19:04:50.791Z,14.62
2023-04-28T19:07:56.547Z,14.68
2023-04-28T19:10:59.476Z,14.79
2023-04-28T19:14:03.547Z,14.54
2023-04-28T19:17:06.125Z,14.49
2023-04-28T19:20:09.914Z,14.24
2023-04-28T19:23:12.958Z,14.32
2023-04-28T19:26:18.423Z,14.40
2023-04-28T19:29:21.598Z,14.12
2023-04-28T19:32:23.949Z,14.18
2023-04-28T19:35:27.636Z,14.14
2023-04-28T19:38:30.051Z,14.33
2023-04-28T19:41:32.387Z,14.24
2023-04-28T19:44:36.440Z,14.10
2023-04-28T19:47:42.633Z,14.34
2023-04-28T19:50:51.391Z,14.33
2023-04-28T19:54:01.394Z,14.12
2023-04-28T19:57:14.614Z,14.26
2023-04-28T20:00:33.476Z,14.15
2023-04-28T20:03:39.580Z,14.29
2023-04-28T20:06:47.142Z,14.29
2023-04-28T20:09:56.257Z,14.03
2023-04-28T20:12:59.266Z,13.85
2023-04-28T20:16:07.828Z,13.69
2023-04-28T20:19:11.281Z,13.68
2023-04-28T20:22:15.954Z,13.72
2023-04-28T20:25:21.508Z,13.90
2023-04-28T20:28:31.208Z,13.69
2023-04-28T20:31:33.911Z,13.68
2023-04-28T20:34:41.556Z,13.83
2023-04-28T20:37:47.118Z,13.82
2023-04-28T20:40:52.404Z,13.65
2023-04-28T20:43:55.833Z,13.69
2023-04-28T20:47:01.838Z,13.59
2023-04-28T20:50:07.382Z,13.57
2023-04-28T20:53:15.413Z,13.73
2023-04-28T20:56:21.242Z,13.98
2023-04-28T20:59:26.203Z,13.70
2023-04-28T21:02:32.814Z,13.83
2023-04-28T21:05:37.818Z,14.02
2023-04-28T21:08:45.296Z,13.83
2023-04-28T21:11:52.872Z,13.83
2023-04-28T21:15:03.863Z,13.64
2023-04-28T21:18:06.604Z,13.49
2023-04-28T21:21:09.758Z,13.70
2023-04-28T21:24:14.978Z,13.78
2023-04-28T21:27:20.659Z,13.47
2023-04-28T21:30:28.432Z,13.78
2023-04-28T21:33:33.352Z,13.77
2023-04-28T21:36:36.761Z,13.73
2023-04-28T21:39:44.877Z,13.75
2023-04-28T21:42:50.000Z,13.66
2023-04-28T21:45:54.448Z,13.54
2023-04-28T21:48:58.739Z,13.62
2023-04-28T21:52:01.337Z,13.72
2023-04-28T21:55:03.624Z,13.59
2023-04-28T21:58:06.574Z,13.54
2023-04-28T22:01:17.937Z,13.39
2023-04-28T22:04:21.526Z,13.27
2023-04-28T22:07:27.317Z,13.39
2023-04-28T22:10:30.976Z,13.28
2023-04-28T22:13:37.595Z,13.30
2023-04-28T22:16:41.668Z,13.34
2023-04-28T22:19:44.258Z,13.14
2023-04-28T22:22:47.793Z,13.39
2023-04-28T22:25:51.733Z,13.54
2023-04-28T22:28:59.842Z,13.44
2023-04-28T22:32:03.019Z,13.32
2023-04-28T22:35:05.816Z,13.06
2023-04-28T22:38:09.503Z,13.05
2023-04-28T22:41:17.518Z,13.07
2023-04-28T22:44:23.298Z,12.95
2023-04-28T22:47:27.134Z,13.20
2023-04-28T22:50:31.585Z,13.22
2023-04-28T22:53:34.318Z,13.25
2023-04-28T22:56:39.453Z,13.13
2023-04-28T22:59:45.731Z,13.02
2023-04-28T23:02:51.939Z,12.99
2023-04-28T23:05:56.599Z,13.16
2023-04-28T23:09:06.176Z,13.18
2023-04-28T23:12:17.443Z,13.24
2023-04-28T23:15:20.896Z,12.95
2023-04-28T23:18:26.492Z,13.02
2023-04-28T23:21:31.988Z,13.06
2023-04-28T23:24:40.179Z,12.98
2023-04-28T23:27:47.804Z,12.92
2023-04-28T23:30:53.264Z,12.97
2023-04-28T23:34:22.768Z,12.97
2023-04-28T23:37:25.564Z,12.59
2023-04-28T23:40:32.754Z,12.71
2023-04-28T23:43:37.707Z,12.71
2023-04-28T23:46:44.462Z,12.59
2023-04-28T23:49:57.902Z,12.58
2023-04-28T23:53:05.946Z,12.67
2023-04-28T23:56:13.504Z,12.48
2023-04-28T23:59:18.766Z,12.42
